createdAt,value
2023-02-26T00:02:05.579Z,68.27
2023-02-26T00:04:34.824Z,67.80
2023-02-26T00:07:04.883Z,67.86
2023-02-26T00:09:33.533Z,68.20
2023-02-26T00:12:02.140Z,68.08
2023-02-26T00:14:30.537Z,68.65
2023-02-26T00:17:14.916Z,68.68
2023-02-26T00:19:45.452Z,68.76
2023-02-26T00:22:13.852Z,68.84
2023-02-26T00:24:42.272Z,67.82
2023-02-26T00:27:12.239Z,68.20
2023-02-26T00:29:41.264Z,67.64
2023-02-26T00:32:10.118Z,68.67
2023-02-26T00:34:38.531Z,68.47
2023-02-26T00:37:18.215Z,67.70
2023-02-26T00:39:56.700Z,66.91
2023-02-26T00:42:25.046Z,67.24
2023-02-26T00:44:53.587Z,67.64
2023-02-26T00:47:30.554Z,67.21
2023-02-26T00:50:12.171Z,67.00
2023-02-26T00:52:48.105Z,67.58
2023-02-26T00:55:16.153Z,67.83
2023-02-26T00:57:44.069Z,67.66
2023-02-26T01:00:13.416Z,67.65
2023-02-26T01:02:44.718Z,67.91
2023-02-26T01:05:14.365Z,68.45
2023-02-26T01:07:54.469Z,67.18
2023-02-26T01:10:24.489Z,67.47
2023-02-26T01:12:52.975Z,67.37
2023-02-26T01:15:21.753Z,67.71
2023-02-26T01:18:00.175Z,68.19
2023-02-26T01:20:32.146Z,68.15
2023-02-26T01:23:05.354Z,68.48
2023-02-26T01:25:40.298Z,67.88
2023-02-26T01:28:09.796Z,68.33
2023-02-26T01:30:38.742Z,68.60
2023-02-26T01:33:13.108Z,68.95
2023-02-26T01:35:45.091Z,67.88
2023-02-26T01:38:28.531Z,67.85
2023-02-26T01:41:14.346Z,68.29
2023-02-26T01:43:52.297Z,67.71
2023-02-26T01:46:27.101Z,68.06
2023-02-26T01:48:59.000Z,68.56
2023-02-26T01:51:46.531Z,68.48
2023-02-26T01:54:20.622Z,68.89
2023-02-26T01:56:51.733Z,68.72
2023-02-26T01:59:24.555Z,69.32
2023-02-26T02:01:54.592Z,68.86
2023-02-26T02:04:26.946Z,68.84
2023-02-26T02:06:55.585Z,69.05
2023-02-26T02:09:25.384Z,68.56
2023-02-26T02:12:27.046Z,69.20
2023-02-26T02:15:05.669Z,69.00
2023-02-26T02:17:46.496Z,69.02
2023-02-26T02:20:45.786Z,69.28
2023-02-26T02:23:18.649Z,69.39
2023-02-26T02:26:24.527Z,69.47
2023-02-26T02:29:10.102Z,69.88
2023-02-26T02:31:44.934Z,69.98
2023-02-26T02:34:17.101Z,70.03
2023-02-26T02:36:50.063Z,69.87
2023-02-26T02:39:23.066Z,69.22
2023-02-26T02:41:55.559Z,69.01
2023-02-26T02:44:27.193Z,70.04
2023-02-26T02:46:59.941Z,69.52
2023-02-26T02:49:36.073Z,70.18
2023-02-26T02:52:11.773Z,70.10
2023-02-26T02:54:46.081Z,69.49
2023-02-26T02:57:18.926Z,70.29
2023-02-26T02:59:49.922Z,70.23
2023-02-26T03:02:25.042Z,69.93
2023-02-26T03:04:53.403Z,69.96
2023-02-26T03:07:21.289Z,70.32
2023-02-26T03:09:53.085Z,70.90
2023-02-26T03:12:20.955Z,71.48
2023-02-26T03:14:50.011Z,71.16
2023-02-26T03:17:33.300Z,70.76
2023-02-26T03:20:14.609Z,71.13
2023-02-26T03:22:50.965Z,71.23
2023-02-26T03:25:27.914Z,71.05
2023-02-26T03:28:07.638Z,71.26
2023-02-26T03:30:41.422Z,71.73
2023-02-26T03:33:15.770Z,71.54
2023-02-26T03:35:51.317Z,72.25
2023-02-26T03:38:28.734Z,71.49
2023-02-26T03:41:04.403Z,71.17
2023-02-26T03:43:39.001Z,71.41
2023-02-26T03:46:15.096Z,71.92
2023-02-26T03:48:45.256Z,71.72
2023-02-26T03:51:15.341Z,72.63
2023-02-26T03:54:08.632Z,72.71
2023-02-26T03:56:44.961Z,71.36
2023-02-26T03:59:37.952Z,71.94
2023-02-26T04:02:36.083Z,72.10
2023-02-26T04:05:18.523Z,71.93
2023-02-26T04:07:49.312Z,71.98
2023-02-26T04:10:21.564Z,72.32
2023-02-26T04:12:49.521Z,72.04
2023-02-26T04:15:18.285Z,72.21
2023-02-26T04:17:46.661Z,72.28
2023-02-26T04:20:16.366Z,72.68
2023-02-26T04:22:44.533Z,73.25
2023-02-26T04:25:12.460Z,72.82
2023-02-26T04:27:40.351Z,72.85
2023-02-26T04:30:10.065Z,72.34
2023-02-26T04:32:38.254Z,73.00
2023-02-26T04:35:08.888Z,72.43
2023-02-26T04:37:39.215Z,72.58
2023-02-26T04:40:08.763Z,73.27
2023-02-26T04:42:38.932Z,72.85
2023-02-26T04:45:08.293Z,72.80
2023-02-26T04:47:38.656Z,72.92
2023-02-26T04:50:08.104Z,73.48
2023-02-26T04:52:36.096Z,72.76
2023-02-26T04:55:07.384Z,73.86
2023-02-26T04:57:38.677Z,73.49
2023-02-26T05:00:08.362Z,73.16
2023-02-26T05:02:38.929Z,73.26
2023-02-26T05:05:07.187Z,73.06
2023-02-26T05:07:35.274Z,73.61
2023-02-26T05:10:03.877Z,73.99
2023-02-26T05:12:34.093Z,74.51
2023-02-26T05:15:02.031Z,73.82
2023-02-26T05:17:29.815Z,74.80
2023-02-26T05:19:58.229Z,73.88
2023-02-26T05:22:26.973Z,74.24
2023-02-26T05:24:54.990Z,74.76
2023-02-26T05:27:22.850Z,74.30
2023-02-26T05:29:53.221Z,74.73
2023-02-26T05:32:22.827Z,74.13
2023-02-26T05:34:51.547Z,74.47
2023-02-26T05:37:19.490Z,74.79
2023-02-26T05:39:47.364Z,74.89
2023-02-26T05:42:15.296Z,74.73
2023-02-26T05:44:43.142Z,74.49
2023-02-26T05:47:12.404Z,75.29
2023-02-26T05:49:40.417Z,74.70
2023-02-26T05:52:08.264Z,75.60
2023-02-26T05:54:36.137Z,75.36
2023-02-26T05:57:04.128Z,75.20
2023-02-26T05:59:32.010Z,75.41
2023-02-26T06:01:59.870Z,75.36
2023-02-26T06:04:29.078Z,75.75
2023-02-26T06:06:57.105Z,75.88
2023-02-26T06:09:24.966Z,76.25
2023-02-26T06:11:53.070Z,76.14
2023-02-26T06:14:21.048Z,76.27
2023-02-26T06:16:49.251Z,76.07
2023-02-26T06:19:17.233Z,76.54
2023-02-26T06:21:47.015Z,76.09
2023-02-26T06:24:14.965Z,76.16
2023-02-26T06:26:43.178Z,76.28
2023-02-26T06:29:10.966Z,76.26
2023-02-26T06:31:38.936Z,76.40
2023-02-26T06:34:06.747Z,76.57
2023-02-26T06:36:34.923Z,76.65
2023-02-26T06:39:04.614Z,76.45
2023-02-26T06:41:32.416Z,76.52
2023-02-26T06:44:00.268Z,77.35
2023-02-26T06:46:28.252Z,76.55
2023-02-26T06:48:56.149Z,76.67
2023-02-26T06:51:24.042Z,76.96
2023-02-26T06:53:52.329Z,76.40
2023-02-26T06:56:23.970Z,76.38
2023-02-26T06:58:52.318Z,77.20
2023-02-26T07:01:20.870Z,77.20
2023-02-26T07:03:48.766Z,76.53
2023-02-26T07:06:27.313Z,77.11
2023-02-26T07:08:57.888Z,76.47
2023-02-26T07:11:29.287Z,76.78
2023-02-26T07:13:58.656Z,76.73
2023-02-26T07:16:27.722Z,76.82
2023-02-26T07:18:55.781Z,76.42
2023-02-26T07:21:23.650Z,77.04
2023-02-26T07:23:51.487Z,76.98
2023-02-26T07:26:19.559Z,77.10
2023-02-26T07:28:48.766Z,77.10
2023-02-26T07:31:17.334Z,77.51
2023-02-26T07:33:46.006Z,77.20
2023-02-26T07:36:16.144Z,76.56
2023-02-26T07:38:44.740Z,76.89
2023-02-26T07:41:13.536Z,76.66
2023-02-26T07:43:42.770Z,77.26
2023-02-26T07:46:15.690Z,77.03
2023-02-26T07:48:43.618Z,76.55
2023-02-26T07:51:12.132Z,76.41
2023-02-26T07:53:40.250Z,76.83
2023-02-26T07:56:08.095Z,75.89
2023-02-26T07:58:35.942Z,76.00
2023-02-26T08:01:03.922Z,75.74
2023-02-26T08:03:33.229Z,76.48
2023-02-26T08:06:01.551Z,76.29
2023-02-26T08:08:30.283Z,75.80
2023-02-26T08:11:00.272Z,76.04
2023-02-26T08:13:28.434Z,76.43
2023-02-26T08:15:56.371Z,75.44
2023-02-26T08:18:24.237Z,75.52
2023-02-26T08:20:53.590Z,75.81
2023-02-26T08:23:21.612Z,77.89
2023-02-26T08:25:50.417Z,79.17
2023-02-26T08:28:18.249Z,79.76
2023-02-26T08:30:47.350Z,79.20
2023-02-26T08:33:15.627Z,79.64
2023-02-26T08:35:43.484Z,78.37
2023-02-26T08:38:12.724Z,77.78
2023-02-26T08:40:40.652Z,77.43
2023-02-26T08:43:09.844Z,77.82
2023-02-26T08:45:37.690Z,77.12
2023-02-26T08:48:08.114Z,77.91
2023-02-26T08:50:38.501Z,76.17
2023-02-26T08:53:07.902Z,76.51
2023-02-26T08:55:37.379Z,77.08
2023-02-26T08:58:05.647Z,76.35
2023-02-26T09:00:35.266Z,75.92
2023-02-26T09:03:04.096Z,78.26
2023-02-26T09:05:31.991Z,75.74
2023-02-26T09:07:59.858Z,75.19
2023-02-26T09:10:27.724Z,76.11
2023-02-26T09:12:57.912Z,75.68
2023-02-26T09:15:25.760Z,76.30
2023-02-26T09:17:54.443Z,76.13
2023-02-26T09:20:22.295Z,74.04
2023-02-26T09:22:50.499Z,75.10
2023-02-26T09:25:18.450Z,75.80
2023-02-26T09:27:46.252Z,75.93
2023-02-26T09:30:17.398Z,76.75
2023-02-26T09:32:45.292Z,76.14
2023-02-26T09:35:13.239Z,74.78
2023-02-26T09:37:41.249Z,75.03
2023-02-26T09:40:15.585Z,75.77
2023-02-26T09:42:58.315Z,74.84
2023-02-26T09:45:33.611Z,73.80
2023-02-26T09:48:05.567Z,74.01
2023-02-26T09:50:42.360Z,75.90
2023-02-26T09:53:18.117Z,76.81
2023-02-26T09:55:49.207Z,76.44
2023-02-26T09:58:22.431Z,76.15
2023-02-26T10:01:01.457Z,76.77
2023-02-26T10:03:35.473Z,76.88
2023-02-26T10:06:21.133Z,76.97
2023-02-26T10:09:02.468Z,77.62
2023-02-26T10:11:34.601Z,76.90
2023-02-26T10:14:08.272Z,77.56
2023-02-26T10:16:42.705Z,78.09
2023-02-26T10:19:16.188Z,78.94
2023-02-26T10:21:50.536Z,78.76
2023-02-26T10:24:24.020Z,78.92
2023-02-26T10:26:55.702Z,78.23
2023-02-26T10:29:33.949Z,78.06
2023-02-26T10:32:16.428Z,78.58
2023-02-26T10:34:52.641Z,79.95
2023-02-26T10:37:23.062Z,79.70
2023-02-26T10:39:55.001Z,79.15
2023-02-26T10:42:24.899Z,78.50
2023-02-26T10:45:08.085Z,79.41
2023-02-26T10:47:44.763Z,78.05
2023-02-26T10:50:15.659Z,79.11
2023-02-26T10:52:46.029Z,79.14
2023-02-26T10:55:28.797Z,78.58
2023-02-26T10:58:05.913Z,78.19
2023-02-26T11:00:37.113Z,79.42
2023-02-26T11:03:08.813Z,78.58
2023-02-26T11:05:36.938Z,78.44
2023-02-26T11:08:10.992Z,78.24
2023-02-26T11:10:43.438Z,78.70
2023-02-26T11:13:12.989Z,77.34
2023-02-26T11:15:41.484Z,76.52
2023-02-26T11:18:17.723Z,76.03
2023-02-26T11:20:47.982Z,75.05
2023-02-26T11:23:19.821Z,76.11
2023-02-26T11:25:53.759Z,73.29
2023-02-26T11:28:26.287Z,74.28
2023-02-26T11:30:57.295Z,74.46
2023-02-26T11:33:30.002Z,74.28
2023-02-26T11:36:02.387Z,74.09
2023-02-26T11:38:33.340Z,72.85
2023-02-26T11:41:03.249Z,73.51
2023-02-26T11:43:38.391Z,73.08
2023-02-26T11:46:07.157Z,73.02
2023-02-26T11:48:42.108Z,72.55
2023-02-26T11:51:14.528Z,72.35
2023-02-26T11:53:45.078Z,73.00
2023-02-26T11:56:16.763Z,71.80
2023-02-26T11:58:47.580Z,71.20
2023-02-26T12:01:17.718Z,70.88
2023-02-26T12:03:51.102Z,70.50
2023-02-26T12:06:20.342Z,70.84
2023-02-26T12:08:49.289Z,70.00
2023-02-26T12:11:43.294Z,70.09
2023-02-26T12:14:27.972Z,70.24
2023-02-26T12:17:04.317Z,70.38
2023-02-26T12:19:43.367Z,70.66
2023-02-26T12:22:30.832Z,70.46
2023-02-26T12:25:21.808Z,71.15
2023-02-26T12:28:06.456Z,71.99
2023-02-26T12:30:50.169Z,71.54
2023-02-26T12:33:31.448Z,70.84
2023-02-26T12:36:17.581Z,71.12
2023-02-26T12:38:53.585Z,71.09
2023-02-26T12:41:53.154Z,71.23
2023-02-26T12:44:41.122Z,70.79
2023-02-26T12:47:32.127Z,71.30
2023-02-26T12:50:10.604Z,70.54
2023-02-26T12:53:06.363Z,71.04
2023-02-26T12:55:43.303Z,70.89
2023-02-26T12:58:36.642Z,71.41
2023-02-26T13:01:21.494Z,71.56
2023-02-26T13:04:31.225Z,71.97
2023-02-26T13:07:20.841Z,71.25
2023-02-26T13:10:03.437Z,70.94
2023-02-26T13:12:39.923Z,70.64
2023-02-26T13:15:22.407Z,69.15
2023-02-26T13:17:56.470Z,69.61
2023-02-26T13:20:26.998Z,69.26
2023-02-26T13:22:58.783Z,69.29
2023-02-26T13:25:34.755Z,69.35
2023-02-26T13:28:06.414Z,69.51
2023-02-26T13:30:37.108Z,69.35
2023-02-26T13:33:07.609Z,68.79
2023-02-26T13:35:38.975Z,67.82
2023-02-26T13:38:18.205Z,67.51
2023-02-26T13:40:57.460Z,66.81
2023-02-26T13:43:39.270Z,66.51
2023-02-26T13:46:21.150Z,65.75
2023-02-26T13:48:58.112Z,65.70
2023-02-26T13:51:35.060Z,64.72
2023-02-26T13:54:08.979Z,63.90
2023-02-26T13:57:08.199Z,63.96
2023-02-26T13:59:49.073Z,64.80
2023-02-26T14:02:47.465Z,63.63
2023-02-26T14:05:35.875Z,62.38
2023-02-26T14:08:51.444Z,62.94
2023-02-26T14:11:34.170Z,62.24
2023-02-26T14:14:18.086Z,61.49
2023-02-26T14:16:49.876Z,61.21
2023-02-26T14:19:28.936Z,61.72
2023-02-26T14:22:03.887Z,62.34
2023-02-26T14:24:38.847Z,62.48
2023-02-26T14:27:23.549Z,62.73
2023-02-26T14:30:20.942Z,62.90
2023-02-26T14:32:54.529Z,62.65
2023-02-26T14:35:25.575Z,61.29
2023-02-26T14:38:00.545Z,61.84
2023-02-26T14:40:32.494Z,61.02
2023-02-26T14:43:03.664Z,61.14
2023-02-26T14:45:36.037Z,61.05
2023-02-26T14:48:07.176Z,60.84
2023-02-26T14:50:46.147Z,60.72
2023-02-26T14:53:43.453Z,61.59
2023-02-26T14:56:19.508Z,62.01
2023-02-26T14:59:01.436Z,64.30
2023-02-26T15:01:53.387Z,64.09
2023-02-26T15:04:44.245Z,63.33
2023-02-26T15:07:43.533Z,62.66
2023-02-26T15:10:34.550Z,61.53
2023-02-26T15:13:22.550Z,59.89
2023-02-26T15:15:56.464Z,60.12
2023-02-26T15:18:47.036Z,60.03
2023-02-26T15:21:22.380Z,60.76
2023-02-26T15:23:53.083Z,61.06
2023-02-26T15:26:24.545Z,60.68
2023-02-26T15:28:53.880Z,60.28
2023-02-26T15:31:29.432Z,60.54
2023-02-26T15:33:59.646Z,60.55
2023-02-26T15:36:31.016Z,59.95
2023-02-26T15:39:01.701Z,59.99
2023-02-26T15:41:31.761Z,58.55
2023-02-26T15:44:04.158Z,60.04
2023-02-26T15:46:35.184Z,58.62
2023-02-26T15:49:10.550Z,60.69
2023-02-26T15:51:38.879Z,59.74
2023-02-26T15:54:07.990Z,60.32
2023-02-26T15:56:41.284Z,60.37
2023-02-26T15:59:14.119Z,61.20
2023-02-26T16:01:43.241Z,60.75
2023-02-26T16:04:16.141Z,60.32
2023-02-26T16:06:48.780Z,60.10
2023-02-26T16:09:19.629Z,60.84
2023-02-26T16:11:49.489Z,60.35
2023-02-26T16:14:23.448Z,60.26
2023-02-26T16:16:54.389Z,60.80
2023-02-26T16:19:32.533Z,60.52
2023-02-26T16:22:04.801Z,61.32
2023-02-26T16:24:33.587Z,59.92
2023-02-26T16:27:07.228Z,59.25
2023-02-26T16:29:37.113Z,56.59
2023-02-26T16:32:07.991Z,55.61
2023-02-26T16:34:44.901Z,56.35
2023-02-26T16:37:25.267Z,56.25
2023-02-26T16:39:57.935Z,57.08
2023-02-26T16:42:38.870Z,56.57
2023-02-26T16:45:21.447Z,56.90
2023-02-26T16:47:52.558Z,56.67
2023-02-26T16:50:26.466Z,57.67
2023-02-26T16:53:01.140Z,56.82
2023-02-26T16:55:32.202Z,57.10
2023-02-26T16:58:06.159Z,57.15
2023-02-26T17:00:36.681Z,56.98
2023-02-26T17:03:12.080Z,57.32
2023-02-26T17:05:45.345Z,57.55
2023-02-26T17:08:17.734Z,56.98
2023-02-26T17:10:48.418Z,57.30
2023-02-26T17:13:18.643Z,57.31
2023-02-26T17:15:49.127Z,57.58
2023-02-26T17:18:17.624Z,56.84
2023-02-26T17:20:47.939Z,56.78
2023-02-26T17:23:18.279Z,57.02
2023-02-26T17:25:50.235Z,56.97
2023-02-26T17:28:25.339Z,56.38
2023-02-26T17:30:53.403Z,55.86
2023-02-26T17:33:22.023Z,56.45
2023-02-26T17:35:52.104Z,56.59
2023-02-26T17:38:20.014Z,56.89
2023-02-26T17:40:48.663Z,56.59
2023-02-26T17:43:16.878Z,57.19
2023-02-26T17:45:44.737Z,56.99
2023-02-26T17:48:14.682Z,56.80
2023-02-26T17:50:47.030Z,58.03
2023-02-26T17:53:17.111Z,58.09
2023-02-26T17:55:48.264Z,57.88
2023-02-26T17:58:18.393Z,58.59
2023-02-26T18:00:50.119Z,58.33
2023-02-26T18:03:18.238Z,58.25
2023-02-26T18:05:48.244Z,58.89
2023-02-26T18:08:22.662Z,58.95
2023-02-26T18:10:50.590Z,60.13
2023-02-26T18:13:19.248Z,59.43
2023-02-26T18:15:47.430Z,59.17
2023-02-26T18:18:16.577Z,59.17
2023-02-26T18:20:46.002Z,59.48
2023-02-26T18:23:14.202Z,59.38
2023-02-26T18:25:45.129Z,59.45
2023-02-26T18:28:17.364Z,59.05
2023-02-26T18:30:46.050Z,59.27
2023-02-26T18:33:16.990Z,59.21
2023-02-26T18:35:47.950Z,59.08
2023-02-26T18:38:17.195Z,59.00
2023-02-26T18:40:47.714Z,59.22
2023-02-26T18:43:15.827Z,59.25
2023-02-26T18:45:46.022Z,59.26
2023-02-26T18:48:16.955Z,59.03
2023-02-26T18:50:45.540Z,59.12
2023-02-26T18:53:15.282Z,58.93
2023-02-26T18:55:43.168Z,59.10
2023-02-26T18:58:13.236Z,58.55
2023-02-26T19:00:41.790Z,59.14
2023-02-26T19:03:11.267Z,59.09
2023-02-26T19:05:40.256Z,58.40
2023-02-26T19:08:08.347Z,58.60
2023-02-26T19:10:36.996Z,58.59
2023-02-26T19:13:05.470Z,58.74
2023-02-26T19:15:35.615Z,58.86
2023-02-26T19:18:04.446Z,59.45
2023-02-26T19:20:32.279Z,59.18
2023-02-26T19:23:00.972Z,59.13
2023-02-26T19:25:30.838Z,59.28
2023-02-26T19:27:58.702Z,58.95
2023-02-26T19:30:27.724Z,59.34
2023-02-26T19:32:57.853Z,59.44
2023-02-26T19:35:27.104Z,59.03
2023-02-26T19:37:55.247Z,59.35
2023-02-26T19:40:25.961Z,59.55
2023-02-26T19:42:53.783Z,59.48
2023-02-26T19:45:22.331Z,59.72
2023-02-26T19:47:50.224Z,59.78
2023-02-26T19:50:19.649Z,59.75
2023-02-26T19:52:47.473Z,60.12
2023-02-26T19:55:15.533Z,59.87
2023-02-26T19:57:43.346Z,60.09
2023-02-26T20:00:13.974Z,59.96
2023-02-26T20:02:43.075Z,60.78
2023-02-26T20:05:16.734Z,59.82
2023-02-26T20:07:48.107Z,60.36
2023-02-26T20:10:17.085Z,59.41
2023-02-26T20:12:46.850Z,60.34
2023-02-26T20:15:14.956Z,59.90
2023-02-26T20:17:42.889Z,60.96
2023-02-26T20:20:12.240Z,60.84
2023-02-26T20:22:40.415Z,61.05
2023-02-26T20:25:12.123Z,60.88
2023-02-26T20:27:41.037Z,60.75
2023-02-26T20:30:10.910Z,60.93
2023-02-26T20:32:39.373Z,61.01
2023-02-26T20:35:08.012Z,61.50
2023-02-26T20:37:36.339Z,61.27
2023-02-26T20:40:07.984Z,61.82
2023-02-26T20:42:37.912Z,62.08
2023-02-26T20:45:08.142Z,61.81
2023-02-26T20:47:36.350Z,61.77
2023-02-26T20:50:04.298Z,62.21
2023-02-26T20:52:32.708Z,62.09
2023-02-26T20:55:02.564Z,62.41
2023-02-26T20:57:32.659Z,62.08
2023-02-26T21:00:07.507Z,62.66
2023-02-26T21:02:38.014Z,63.02
2023-02-26T21:05:07.927Z,63.01
2023-02-26T21:07:38.375Z,63.10
2023-02-26T21:10:07.362Z,62.92
2023-02-26T21:12:35.607Z,63.90
2023-02-26T21:15:07.192Z,63.65
2023-02-26T21:17:35.082Z,64.22
2023-02-26T21:20:05.842Z,63.90
2023-02-26T21:22:35.729Z,64.37
2023-02-26T21:25:06.498Z,64.66
2023-02-26T21:27:35.648Z,64.48
2023-02-26T21:30:07.576Z,64.41
2023-02-26T21:32:36.536Z,64.89
2023-02-26T21:35:05.698Z,64.90
2023-02-26T21:37:37.177Z,64.62
2023-02-26T21:40:06.840Z,64.94
2023-02-26T21:42:34.733Z,65.34
2023-02-26T21:45:02.573Z,65.64
2023-02-26T21:47:33.035Z,65.74
2023-02-26T21:50:00.892Z,65.75
2023-02-26T21:52:29.054Z,65.63
2023-02-26T21:54:58.772Z,65.86
2023-02-26T21:57:27.049Z,65.79
2023-02-26T21:59:55.741Z,65.64
2023-02-26T22:02:24.033Z,65.95
2023-02-26T22:04:54.435Z,66.03
2023-02-26T22:07:23.085Z,66.05
2023-02-26T22:09:52.217Z,65.63
2023-02-26T22:12:20.148Z,65.75
2023-02-26T22:14:49.190Z,65.94
2023-02-26T22:17:18.027Z,66.08
2023-02-26T22:19:47.946Z,66.47
2023-02-26T22:22:17.913Z,66.16
2023-02-26T22:24:46.142Z,66.65
2023-02-26T22:27:15.484Z,66.52
2023-02-26T22:29:43.374Z,66.42
2023-02-26T22:32:11.232Z,66.68
2023-02-26T22:34:39.112Z,66.36
2023-02-26T22:37:07.662Z,66.99
2023-02-26T22:39:38.268Z,67.05
2023-02-26T22:42:08.400Z,66.85
2023-02-26T22:44:36.944Z,66.79
2023-02-26T22:47:06.123Z,67.11
2023-02-26T22:49:36.041Z,66.92
2023-02-26T22:52:05.877Z,67.54
2023-02-26T22:54:34.262Z,67.37
2023-02-26T22:57:03.522Z,67.21
2023-02-26T22:59:31.967Z,67.52
2023-02-26T23:02:00.622Z,67.75
2023-02-26T23:04:28.481Z,67.90
2023-02-26T23:06:56.830Z,68.33
2023-02-26T23:09:24.947Z,68.09
2023-02-26T23:11:52.852Z,68.16
2023-02-26T23:14:23.479Z,68.06
2023-02-26T23:16:53.036Z,67.96
2023-02-26T23:19:22.395Z,68.51
2023-02-26T23:21:50.314Z,68.65
2023-02-26T23:24:19.151Z,68.63
2023-02-26T23:26:47.665Z,68.91
2023-02-26T23:29:15.533Z,68.90
2023-02-26T23:31:44.916Z,68.74
2023-02-26T23:34:14.598Z,69.41
2023-02-26T23:36:44.297Z,69.04
2023-02-26T23:39:14.108Z,69.65
2023-02-26T23:41:42.887Z,69.94
2023-02-26T23:44:10.834Z,69.62
2023-02-26T23:46:38.776Z,69.90
2023-02-26T23:49:09.842Z,70.28
2023-02-26T23:51:38.423Z,70.47
2023-02-26T23:54:06.514Z,70.95
2023-02-26T23:56:34.442Z,70.53
2023-02-26T23:59:02.317Z,70.78
